This is the latest recevied weather packets stored in our database for station/object AE6DC-5. If no packets are shown the sender has not sent any weather packets the latest 10 day(s).
| Time | Temp. | Humidity | Pressure | Rain* | Wind** | Luminosity | Snow |
|---|---|---|---|---|---|---|---|
| 1777417221 | 13.89° C | 84% | 1019.1 hPa | 0 mm | - | 694 W/m² | - |
| 1777415800 | 13.33° C | 84% | 1019.1 hPa | 0 mm | - | 809 W/m² | - |
| 1777413261 | 13.89° C | 83% | 1019.5 hPa | 0 mm | - | 877 W/m² | - |
| 1777412198 | 13.33° C | 83% | 1020 hPa | 0 mm | - | 602 W/m² | - |
| 1777411458 | 13.33° C | 83% | 1019.8 hPa | 0 mm | - | 885 W/m² | - |
| 1777410741 | 13.33° C | 83% | 1019.8 hPa | 0 mm | - | 898 W/m² | - |
| 1777409679 | 13.33° C | 82% | 1019.9 hPa | 0 mm | - | 923 W/m² | - |
| 1777405340 | 13.33° C | 80% | 1020 hPa | 0 mm | - | 944 W/m² | - |
| 1777404640 | 13.33° C | 80% | 1020.1 hPa | 0 mm | - | 938 W/m² | - |
| 1777403898 | 13.33° C | 79% | 1020.1 hPa | 0 mm | - | 929 W/m² | - |
| 1777403537 | 13.33° C | 79% | 1020.1 hPa | 0 mm | - | 922 W/m² | - |
| 1777403178 | 13.33° C | 79% | 1020.2 hPa | 0 mm | - | 918 W/m² | - |
| 1777399259 | 13.33° C | 79% | 1019.9 hPa | 0 mm | - | 804 W/m² | - |
| 1777396340 | 12.78° C | 79% | 1020.4 hPa | 0 mm | - | 382 W/m² | - |
| 1777395980 | 12.78° C | 79% | 1019.9 hPa | 0 mm | - | 568 W/m² | - |
| 1777394917 | 12.78° C | 79% | 1019.6 hPa | 0 mm | - | 619 W/m² | - |
| 1777393464 | 12.78° C | 78% | 1019.9 hPa | 0 mm | - | 362 W/m² | - |
| 1777393101 | 12.78° C | 78% | 1019.8 hPa | 0 mm | - | 376 W/m² | - |
| 1777389499 | 12.22° C | 79% | 1019.8 hPa | 0 mm | - | 219 W/m² | - |
| 1777388779 | 12.78° C | 79% | 1019.7 hPa | 0 mm | - | 147 W/m² | - |
| 1777387720 | 12.78° C | 80% | 1019.6 hPa | 0 mm | - | 113 W/m² | - |
| 1777383377 | 12.78° C | 82% | 1019.1 hPa | 0 mm | - | 19 W/m² | - |
| 1777381580 | 12.78° C | 83% | 1019 hPa | 0 mm | - | 0 W/m² | - |
| 1777381218 | 12.78° C | 83% | 1019 hPa | 0 mm | - | 0 W/m² | - |
| 1777380498 | 12.78° C | 82% | 1019.1 hPa | 0 mm | - | 0 W/m² | - |
* Rain latest hour (hover to see other rain measurements)
** Current wind speed in m/s (hover to see current wind gust speed)